Time;durP1;ratioP1;P1;durP2;ratioP2;P2;SDS_P1;SDS_P2;PMS_P1;PMS_P2;Temp;Humidity;BMP_temperature;BMP_pressure;BME280_temperature;BME280_humidity;BME280_pressure;Samples;Min_cycle;Max_cycle;Signal;HPM_P1;HPM_P2
2022/07/19 00:00:11;;;;;;;1.50;1.40;;;;;;;;;;8282515;28;20018;-61
2022/07/19 00:04:11;;;;;;;6.83;1.60;;;;;;;;;;8284596;28;20032;-62
2022/07/19 00:08:11;;;;;;;3.13;1.30;;;;;;;;;;8284398;28;20021;-61
2022/07/19 00:12:13;;;;;;;3.03;1.20;;;;;;;;;;8281733;28;20017;-60
2022/07/19 00:16:14;;;;;;;2.42;1.30;;;;;;;;;;8284124;28;20269;-61
2022/07/19 00:20:17;;;;;;;2.40;1.50;;;;;;;;;;8281718;28;20021;-62
2022/07/19 00:24:17;;;;;;;3.35;1.50;;;;;;;;;;8284130;28;20028;-61
2022/07/19 00:28:17;;;;;;;1.42;1.30;;;;;;;;;;8282547;28;20390;-61
2022/07/19 00:32:18;;;;;;;1.40;1.30;;;;;;;;;;8284651;28;20223;-60
2022/07/19 00:36:18;;;;;;;2.42;1.30;;;;;;;;;;8284583;28;20257;-61
2022/07/19 00:40:22;;;;;;;5.00;1.50;;;;;;;;;;8282094;28;20113;-62
2022/07/19 00:44:22;;;;;;;1.52;1.20;;;;;;;;;;8282254;28;20022;-61
2022/07/19 00:48:23;;;;;;;4.97;1.73;;;;;;;;;;8281789;28;20139;-61
2022/07/19 00:52:25;;;;;;;4.07;1.48;;;;;;;;;;8283307;28;20043;-61
2022/07/19 00:56:26;;;;;;;3.30;1.30;;;;;;;;;;8282014;28;20113;-61
2022/07/19 01:00:27;;;;;;;1.60;1.20;;;;;;;;;;8282723;28;20041;-61
2022/07/19 01:04:28;;;;;;;2.80;1.50;;;;;;;;;;8281645;28;20022;-61
2022/07/19 01:08:29;;;;;;;1.60;1.13;;;;;;;;;;8280959;28;20679;-61
2022/07/19 01:12:29;;;;;;;1.60;1.17;;;;;;;;;;8281576;28;20274;-61
2022/07/19 01:16:29;;;;;;;3.53;1.60;;;;;;;;;;8281644;28;20747;-62
2022/07/19 01:20:30;;;;;;;2.67;1.33;;;;;;;;;;8281808;28;20030;-61
2022/07/19 01:24:30;;;;;;;4.63;1.27;;;;;;;;;;8280943;28;20017;-63
2022/07/19 01:28:30;;;;;;;2.70;1.30;;;;;;;;;;8279246;28;20045;-61
2022/07/19 01:32:30;;;;;;;1.83;1.25;;;;;;;;;;8298689;28;20484;-61
2022/07/19 01:36:31;;;;;;;1.93;1.10;;;;;;;;;;8311506;28;20040;-61
2022/07/19 01:40:32;;;;;;;2.57;1.50;;;;;;;;;;8314008;28;20036;-62
2022/07/19 01:44:33;;;;;;;4.78;1.42;;;;;;;;;;8313908;28;20087;-61
2022/07/19 01:48:33;;;;;;;1.60;1.42;;;;;;;;;;8313999;28;20095;-61
2022/07/19 01:52:33;;;;;;;2.05;1.25;;;;;;;;;;8314384;28;20065;-60
2022/07/19 01:56:33;;;;;;;4.63;1.42;;;;;;;;;;8314962;28;20021;-61
2022/07/19 02:00:34;;;;;;;3.50;1.50;;;;;;;;;;8308873;28;20052;-61
2022/07/19 02:04:34;;;;;;;1.67;1.35;;;;;;;;;;8282044;28;20417;-61
2022/07/19 02:08:34;;;;;;;1.33;1.23;;;;;;;;;;8281330;28;20113;-61
2022/07/19 02:12:35;;;;;;;6.57;1.30;;;;;;;;;;8279833;28;20079;-61
2022/07/19 02:16:36;;;;;;;2.30;1.38;;;;;;;;;;8281436;28;20276;-62
2022/07/19 02:20:36;;;;;;;2.42;1.33;;;;;;;;;;8281814;28;20033;-62
2022/07/19 02:24:38;;;;;;;4.10;1.30;;;;;;;;;;8279507;28;20071;-61
2022/07/19 02:28:38;;;;;;;2.05;1.40;;;;;;;;;;8284463;28;20490;-61
2022/07/19 02:32:39;;;;;;;3.22;1.48;;;;;;;;;;8285414;28;20153;-61
2022/07/19 02:36:39;;;;;;;2.20;1.42;;;;;;;;;;8288654;28;20029;-61
2022/07/19 02:40:39;;;;;;;2.88;1.40;;;;;;;;;;8287310;28;20068;-61
2022/07/19 02:44:39;;;;;;;1.70;1.40;;;;;;;;;;8285164;28;20681;-62
2022/07/19 02:48:40;;;;;;;2.08;1.35;;;;;;;;;;8286767;28;20076;-61
2022/07/19 02:52:40;;;;;;;4.43;1.50;;;;;;;;;;8288916;28;20033;-61
2022/07/19 02:56:40;;;;;;;2.60;1.35;;;;;;;;;;8287782;28;20026;-61
2022/07/19 03:00:41;;;;;;;1.50;1.40;;;;;;;;;;8285431;28;20033;-61
2022/07/19 03:04:41;;;;;;;2.00;1.60;;;;;;;;;;8286901;28;20821;-61
2022/07/19 03:08:41;;;;;;;3.35;2.10;;;;;;;;;;8285989;28;20021;-61
2022/07/19 03:12:41;;;;;;;5.60;2.40;;;;;;;;;;8286629;28;20049;-61
2022/07/19 03:16:42;;;;;;;4.57;2.23;;;;;;;;;;8284257;28;20119;-62
2022/07/19 03:20:42;;;;;;;4.57;2.30;;;;;;;;;;8285093;28;20032;-61
2022/07/19 03:24:42;;;;;;;3.58;2.45;;;;;;;;;;8284513;28;20026;-61
2022/07/19 03:28:42;;;;;;;4.88;2.67;;;;;;;;;;8287780;28;20025;-61
2022/07/19 03:32:42;;;;;;;3.30;2.30;;;;;;;;;;8282499;28;20590;-61
2022/07/19 03:36:42;;;;;;;3.85;2.40;;;;;;;;;;8285262;28;20026;-61
2022/07/19 03:40:44;;;;;;;2.95;2.20;;;;;;;;;;8284738;28;20037;-61
2022/07/19 03:44:44;;;;;;;4.25;2.42;;;;;;;;;;8284198;28;20133;-62
2022/07/19 03:48:45;;;;;;;5.63;2.73;;;;;;;;;;8283348;28;20071;-61
2022/07/19 03:52:45;;;;;;;3.78;2.50;;;;;;;;;;8284274;28;20373;-62
2022/07/19 03:56:45;;;;;;;4.90;2.53;;;;;;;;;;8283110;28;20483;-62
2022/07/19 04:00:45;;;;;;;4.57;2.25;;;;;;;;;;8283604;28;20828;-61
2022/07/19 04:04:45;;;;;;;4.28;2.40;;;;;;;;;;8283667;28;20079;-62
2022/07/19 04:08:46;;;;;;;4.97;2.78;;;;;;;;;;8282373;28;20022;-62
2022/07/19 04:12:46;;;;;;;6.57;2.45;;;;;;;;;;8282293;28;20140;-62
2022/07/19 04:16:46;;;;;;;8.82;2.40;;;;;;;;;;8282560;28;20045;-61
2022/07/19 04:20:46;;;;;;;4.70;2.10;;;;;;;;;;8285508;28;21031;-62
2022/07/19 04:24:46;;;;;;;6.82;2.13;;;;;;;;;;8284807;28;20041;-62
2022/07/19 04:28:47;;;;;;;3.03;1.97;;;;;;;;;;8284359;28;20103;-61
2022/07/19 04:32:47;;;;;;;4.32;2.00;;;;;;;;;;8280781;28;20361;-62
2022/07/19 04:36:47;;;;;;;2.53;2.05;;;;;;;;;;8281202;28;20034;-62
2022/07/19 04:40:47;;;;;;;5.53;2.17;;;;;;;;;;8282161;28;20155;-61
2022/07/19 04:44:48;;;;;;;4.68;2.00;;;;;;;;;;8283598;28;20029;-62
2022/07/19 04:48:48;;;;;;;8.05;2.10;;;;;;;;;;8280698;28;20041;-61
2022/07/19 04:52:48;;;;;;;4.85;1.95;;;;;;;;;;8280303;28;20083;-62
2022/07/19 04:56:48;;;;;;;4.82;2.10;;;;;;;;;;8281346;28;20022;-62
2022/07/19 05:00:49;;;;;;;6.33;2.30;;;;;;;;;;8283052;28;20030;-62
2022/07/19 05:04:49;;;;;;;3.27;2.20;;;;;;;;;;8283164;28;20148;-62
2022/07/19 05:08:49;;;;;;;3.88;2.45;;;;;;;;;;8280249;28;21368;-62
2022/07/19 05:12:49;;;;;;;4.43;2.10;;;;;;;;;;8279511;28;20091;-62
2022/07/19 05:16:50;;;;;;;9.95;2.47;;;;;;;;;;8281816;28;20542;-63
2022/07/19 05:20:50;;;;;;;3.70;1.83;;;;;;;;;;8283675;28;20021;-63
2022/07/19 05:24:51;;;;;;;2.50;2.07;;;;;;;;;;8281293;28;20025;-62
2022/07/19 05:28:52;;;;;;;5.93;2.38;;;;;;;;;;8282557;28;20030;-61
2022/07/19 05:32:52;;;;;;;7.70;2.70;;;;;;;;;;8281059;28;20553;-62
2022/07/19 05:36:53;;;;;;;6.75;2.55;;;;;;;;;;8281551;28;20029;-62
2022/07/19 05:40:53;;;;;;;4.10;2.40;;;;;;;;;;8279674;28;20030;-63
2022/07/19 05:44:53;;;;;;;4.10;2.40;;;;;;;;;;8282154;28;20029;-62
2022/07/19 05:48:53;;;;;;;9.50;2.20;;;;;;;;;;8282784;28;20652;-62
2022/07/19 05:52:53;;;;;;;4.00;2.30;;;;;;;;;;8283426;28;20072;-62
2022/07/19 05:56:54;;;;;;;3.42;2.35;;;;;;;;;;8281442;28;20049;-62
2022/07/19 06:05:14;;;;;;;6.68;2.03;;;;;;;;;;8288895;28;20115;-62
2022/07/19 06:09:15;;;;;;;4.05;2.30;;;;;;;;;;8288524;28;20026;-62
2022/07/19 06:13:16;;;;;;;4.13;2.10;;;;;;;;;;8289236;28;20026;-64
2022/07/19 06:17:16;;;;;;;3.53;2.00;;;;;;;;;;8286383;28;20055;-62
2022/07/19 06:21:18;;;;;;;2.45;1.92;;;;;;;;;;8286057;28;20664;-62
2022/07/19 06:25:18;;;;;;;;;;;;;;;;;;8287067;28;20032;-62
2022/07/19 06:29:19;;;;;;;6.22;2.00;;;;;;;;;;8285971;28;19909;-62
2022/07/19 06:33:19;;;;;;;4.18;2.40;;;;;;;;;;8286030;28;20518;-62
2022/07/19 06:37:19;;;;;;;3.28;2.05;;;;;;;;;;8285694;28;20025;-62
2022/07/19 06:41:19;;;;;;;5.50;2.00;;;;;;;;;;8280789;28;20029;-62
2022/07/19 06:45:20;;;;;;;4.25;1.83;;;;;;;;;;8284396;28;20072;-63
2022/07/19 06:49:20;;;;;;;3.27;1.87;;;;;;;;;;8286535;28;20111;-62
2022/07/19 06:53:20;;;;;;;5.47;1.80;;;;;;;;;;8287314;28;20123;-62
2022/07/19 06:57:20;;;;;;;8.13;2.28;;;;;;;;;;8282894;28;20284;-62
2022/07/19 07:01:21;;;;;;;6.68;2.20;;;;;;;;;;8285319;28;20033;-62
2022/07/19 07:05:21;;;;;;;12.47;2.40;;;;;;;;;;8286528;28;20037;-62
2022/07/19 07:09:22;;;;;;;8.73;2.57;;;;;;;;;;8285928;28;20591;-62
2022/07/19 07:13:22;;;;;;;7.87;2.27;;;;;;;;;;8286330;28;20029;-62
2022/07/19 07:17:23;;;;;;;8.10;2.20;;;;;;;;;;8285407;28;20052;-62
2022/07/19 07:21:23;;;;;;;4.68;1.90;;;;;;;;;;8284994;28;20025;-62
2022/07/19 07:25:23;;;;;;;6.17;1.93;;;;;;;;;;8287759;28;20033;-62
2022/07/19 07:29:24;;;;;;;4.88;1.92;;;;;;;;;;8283821;28;20398;-62
2022/07/19 07:33:24;;;;;;;4.07;1.70;;;;;;;;;;8285732;28;20061;-62
2022/07/19 07:37:26;;;;;;;3.92;2.00;;;;;;;;;;8284488;28;20064;-62
2022/07/19 07:41:26;;;;;;;;;;;;;;;;;;8285547;28;20021;-62
2022/07/19 07:45:26;;;;;;;3.67;2.00;;;;;;;;;;8284448;28;20802;-62
2022/07/19 07:49:26;;;;;;;3.20;1.90;;;;;;;;;;8284938;28;20107;-62
2022/07/19 07:53:27;;;;;;;6.73;2.00;;;;;;;;;;8281505;28;20029;-62
2022/07/19 07:57:27;;;;;;;7.33;2.03;;;;;;;;;;8284733;28;20018;-62
2022/07/19 08:01:29;;;;;;;5.70;1.80;;;;;;;;;;8282770;28;20698;-62
2022/07/19 08:05:30;;;;;;;8.80;2.05;;;;;;;;;;8285364;28;20095;-62
2022/07/19 08:09:31;;;;;;;7.53;2.20;;;;;;;;;;8283987;28;20029;-62
2022/07/19 08:13:31;;;;;;;8.23;2.10;;;;;;;;;;8283329;28;20047;-62
2022/07/19 08:17:31;;;;;;;5.00;2.20;;;;;;;;;;8284379;28;20111;-62
2022/07/19 08:21:32;;;;;;;5.17;1.80;;;;;;;;;;8283300;28;20040;-62
2022/07/19 08:25:35;;;;;;;9.07;2.13;;;;;;;;;;8281856;28;20076;-62
2022/07/19 08:29:35;;;;;;;5.63;1.80;;;;;;;;;;8279203;28;20029;-62
2022/07/19 08:33:37;;;;;;;7.67;1.90;;;;;;;;;;8279406;28;20116;-62
2022/07/19 08:37:37;;;;;;;5.55;2.00;;;;;;;;;;8282512;28;20044;-63
2022/07/19 08:41:37;;;;;;;2.95;1.60;;;;;;;;;;8281055;28;20057;-62
2022/07/19 08:45:41;;;;;;;10.68;1.80;;;;;;;;;;8283481;28;20452;-62
2022/07/19 08:49:42;;;;;;;4.22;1.63;;;;;;;;;;8280313;28;20040;-62
2022/07/19 08:53:43;;;;;;;4.18;1.67;;;;;;;;;;8280426;28;20064;-66
2022/07/19 08:58:01;;;;;;;6.85;1.35;;;;;;;;;;8280336;28;20017;-62
2022/07/19 09:02:01;;;;;;;5.63;1.60;;;;;;;;;;8280530;28;20033;-62
2022/07/19 09:06:04;;;;;;;3.97;1.60;;;;;;;;;;8281838;28;20052;-62
2022/07/19 09:10:18;;;;;;;7.22;1.40;;;;;;;;;;8280857;28;20354;-62
2022/07/19 09:14:25;;;;;;;8.85;1.73;;;;;;;;;;8280838;28;20026;-62
2022/07/19 09:18:35;;;;;;;3.33;1.55;;;;;;;;;;8281673;28;20046;-64
2022/07/19 09:22:38;;;;;;;8.68;1.90;;;;;;;;;;8288447;28;20080;-62
2022/07/19 09:26:53;;;;;;;3.40;1.70;;;;;;;;;;8281735;28;20033;-62
2022/07/19 09:30:54;;;;;;;4.68;1.85;;;;;;;;;;8278751;28;20037;-63
2022/07/19 09:34:56;;;;;;;5.63;1.40;;;;;;;;;;8279658;28;20060;-62
2022/07/19 09:38:56;;;;;;;3.90;1.70;;;;;;;;;;8278241;28;20029;-62
2022/07/19 09:42:56;;;;;;;9.73;1.63;;;;;;;;;;8280968;28;20037;-63
2022/07/19 09:46:56;;;;;;;5.72;1.75;;;;;;;;;;8279643;28;20092;-62
2022/07/19 09:50:56;;;;;;;5.47;1.60;;;;;;;;;;8278805;28;20715;-62
2022/07/19 09:54:58;;;;;;;9.77;1.85;;;;;;;;;;8279499;28;20026;-63
2022/07/19 09:58:58;;;;;;;6.22;1.70;;;;;;;;;;8281204;28;20839;-63
2022/07/19 10:03:00;;;;;;;2.67;1.57;;;;;;;;;;8278905;28;20120;-62
2022/07/19 10:07:01;;;;;;;6.07;1.67;;;;;;;;;;8278625;28;20738;-62
2022/07/19 10:11:01;;;;;;;2.40;1.50;;;;;;;;;;8280724;28;20600;-62
2022/07/19 10:15:01;;;;;;;3.20;1.53;;;;;;;;;;8278355;28;20029;-62
2022/07/19 10:19:10;;;;;;;3.37;1.40;;;;;;;;;;8278003;28;20033;-62
2022/07/19 10:23:10;;;;;;;5.93;1.67;;;;;;;;;;8277110;28;20021;-62
2022/07/19 10:27:11;;;;;;;3.38;1.58;;;;;;;;;;8279795;28;20028;-62
2022/07/19 10:31:25;;;;;;;3.58;1.45;;;;;;;;;;8278184;28;20040;-63
2022/07/19 10:35:25;;;;;;;2.03;1.40;;;;;;;;;;8281706;28;20041;-62
2022/07/19 10:39:27;;;;;;;10.63;1.75;;;;;;;;;;8281238;28;20099;-63
2022/07/19 10:43:27;;;;;;;5.40;1.52;;;;;;;;;;8282419;28;20161;-63
2022/07/19 10:47:39;;;;;;;2.65;1.50;;;;;;;;;;8279782;28;21033;-62
2022/07/19 10:51:41;;;;;;;7.15;1.52;;;;;;;;;;8287587;28;20345;-63
2022/07/19 10:55:41;;;;;;;3.78;1.70;;;;;;;;;;8287465;28;20028;-62
2022/07/19 10:59:42;;;;;;;4.07;1.30;;;;;;;;;;8286828;28;20031;-62
2022/07/19 11:03:42;;;;;;;4.38;1.48;;;;;;;;;;8285758;28;20049;-62
2022/07/19 11:07:47;;;;;;;6.72;1.60;;;;;;;;;;8287401;28;20033;-62
2022/07/19 11:11:47;;;;;;;5.72;1.88;;;;;;;;;;8285618;28;20029;-62
2022/07/19 11:15:57;;;;;;;4.60;1.80;;;;;;;;;;8285202;28;20135;-62
2022/07/19 11:19:58;;;;;;;6.15;1.60;;;;;;;;;;8287142;28;20022;-63
2022/07/19 11:23:58;;;;;;;;;;;;;;;;;;8285300;28;20455;-62
2022/07/19 11:27:59;;;;;;;6.35;1.70;;;;;;;;;;8286364;28;20039;-62
2022/07/19 11:31:59;;;;;;;;;;;;;;;;;;8284898;28;20037;-62
2022/07/19 11:36:00;;;;;;;7.57;1.90;;;;;;;;;;8283699;28;19913;-62
2022/07/19 11:40:01;;;;;;;8.00;2.08;;;;;;;;;;8284008;28;20035;-63
2022/07/19 11:44:03;;;;;;;5.07;1.80;;;;;;;;;;8285401;28;20030;-62
2022/07/19 11:48:04;;;;;;;3.83;1.75;;;;;;;;;;8280539;28;20065;-63
2022/07/19 11:52:04;;;;;;;4.28;1.85;;;;;;;;;;8282841;28;20665;-64
2022/07/19 11:56:05;;;;;;;5.75;1.80;;;;;;;;;;8281079;28;20083;-63
2022/07/19 12:00:07;;;;;;;3.97;1.70;;;;;;;;;;8281838;28;20071;-62
2022/07/19 12:04:08;;;;;;;6.10;2.00;;;;;;;;;;8279951;28;20025;-62
2022/07/19 12:08:09;;;;;;;4.75;1.65;;;;;;;;;;8281783;28;20323;-62
2022/07/19 12:12:13;;;;;;;3.65;1.70;;;;;;;;;;8280803;28;20112;-62
2022/07/19 12:16:13;;;;;;;2.22;1.58;;;;;;;;;;8279087;28;20352;-62
2022/07/19 12:20:14;;;;;;;3.13;1.42;;;;;;;;;;8282275;28;20021;-62
2022/07/19 12:24:24;;;;;;;3.17;1.20;;;;;;;;;;8280496;28;20037;-62
2022/07/19 12:28:27;;;;;;;6.47;1.58;;;;;;;;;;8282948;28;21112;-62
2022/07/19 12:32:30;;;;;;;5.78;1.52;;;;;;;;;;8280296;28;20327;-62
2022/07/19 12:36:34;;;;;;;2.92;1.65;;;;;;;;;;8285451;28;20026;-62
2022/07/19 12:40:35;;;;;;;4.97;1.50;;;;;;;;;;8278792;28;20029;-62
2022/07/19 12:44:35;;;;;;;;;;;;;;;;;;8279663;28;20080;-62
2022/07/19 12:48:36;;;;;;;13.00;1.57;;;;;;;;;;8278639;28;19917;-62
2022/07/19 12:52:36;;;;;;;4.90;1.60;;;;;;;;;;8279918;28;20290;-62
2022/07/19 12:56:36;;;;;;;;;;;;;;;;;;8281310;28;20026;-62
2022/07/19 13:00:38;;;;;;;4.78;1.70;;;;;;;;;;8277723;28;20419;-66
2022/07/19 13:04:39;;;;;;;2.65;1.67;;;;;;;;;;8277653;28;20053;-62
2022/07/19 13:08:39;;;;;;;5.55;1.50;;;;;;;;;;8282060;28;20029;-62
2022/07/19 13:12:39;;;;;;;;;;;;;;;;;;8275841;28;20029;-62
2022/07/19 13:16:40;;;;;;;5.20;1.70;;;;;;;;;;8278259;28;20373;-62
2022/07/19 13:20:40;;;;;;;;;;;;;;;;;;8278819;28;20573;-62
2022/07/19 13:24:41;;;;;;;5.05;1.80;;;;;;;;;;8277204;28;19919;-61
2022/07/19 13:28:42;;;;;;;2.90;1.92;;;;;;;;;;8280150;28;20532;-61
2022/07/19 13:32:42;;;;;;;3.33;1.47;;;;;;;;;;8274560;28;20038;-61
2022/07/19 13:36:42;;;;;;;9.13;2.13;;;;;;;;;;8276181;28;20252;-61
2022/07/19 13:40:43;;;;;;;14.80;2.50;;;;;;;;;;8274408;28;20021;-61
2022/07/19 13:44:43;;;;;;;6.73;2.00;;;;;;;;;;8277350;28;20033;-61
2022/07/19 13:48:43;;;;;;;6.30;1.80;;;;;;;;;;8275026;28;20052;-62
2022/07/19 13:52:43;;;;;;;10.52;2.42;;;;;;;;;;8280551;28;20025;-62
2022/07/19 13:56:44;;;;;;;6.03;1.67;;;;;;;;;;8280062;28;20469;-62
2022/07/19 14:00:46;;;;;;;8.67;2.10;;;;;;;;;;8278704;28;20045;-62
2022/07/19 14:04:46;;;;;;;11.43;2.05;;;;;;;;;;8280306;28;20287;-62
2022/07/19 14:08:46;;;;;;;9.82;1.90;;;;;;;;;;8277966;28;20044;-63
2022/07/19 14:12:47;;;;;;;1.70;1.43;;;;;;;;;;8281970;28;20029;-63
2022/07/19 14:16:48;;;;;;;5.80;2.03;;;;;;;;;;8278441;28;20040;-62
2022/07/19 14:20:48;;;;;;;4.97;1.90;;;;;;;;;;8278978;28;20292;-63
2022/07/19 14:24:49;;;;;;;6.78;1.83;;;;;;;;;;8284567;28;20478;-63
2022/07/19 14:28:49;;;;;;;7.80;1.90;;;;;;;;;;8285844;28;20104;-63
2022/07/19 14:32:49;;;;;;;5.78;1.88;;;;;;;;;;8284646;28;20034;-63
2022/07/19 14:36:49;;;;;;;2.37;1.90;;;;;;;;;;8285341;28;20071;-62
2022/07/19 14:40:50;;;;;;;9.75;2.15;;;;;;;;;;8279561;28;20128;-63
2022/07/19 14:44:50;;;;;;;2.58;1.60;;;;;;;;;;8284623;28;20064;-62
2022/07/19 14:48:50;;;;;;;7.68;2.10;;;;;;;;;;8282912;28;20465;-63
2022/07/19 14:52:50;;;;;;;9.20;1.88;;;;;;;;;;8284476;28;21083;-63
2022/07/19 14:56:51;;;;;;;2.30;1.65;;;;;;;;;;8283716;28;20057;-63
2022/07/19 15:00:51;;;;;;;5.30;1.83;;;;;;;;;;8282098;28;20041;-63
2022/07/19 15:04:52;;;;;;;5.60;1.67;;;;;;;;;;8282582;28;20030;-62
2022/07/19 15:08:52;;;;;;;10.25;2.00;;;;;;;;;;8283455;28;20018;-63
2022/07/19 15:12:52;;;;;;;6.65;1.98;;;;;;;;;;8283592;28;20567;-62
2022/07/19 15:16:52;;;;;;;5.10;2.17;;;;;;;;;;8280232;28;20037;-62
2022/07/19 15:20:52;;;;;;;4.22;2.25;;;;;;;;;;8283628;28;20026;-62
2022/07/19 15:24:54;;;;;;;9.63;2.50;;;;;;;;;;8283038;28;20025;-62
2022/07/19 15:28:54;;;;;;;5.20;1.90;;;;;;;;;;8284474;28;20134;-63
2022/07/19 15:32:55;;;;;;;6.18;2.20;;;;;;;;;;8282609;28;20072;-63
2022/07/19 15:36:55;;;;;;;5.60;1.70;;;;;;;;;;8281067;28;20029;-63
2022/07/19 15:40:55;;;;;;;7.30;1.80;;;;;;;;;;8282644;28;20433;-63
2022/07/19 15:44:56;;;;;;;4.03;1.90;;;;;;;;;;8283174;28;22204;-63
2022/07/19 15:48:57;;;;;;;4.67;1.90;;;;;;;;;;8281801;28;20177;-62
2022/07/19 15:52:57;;;;;;;3.33;1.90;;;;;;;;;;8282053;28;20030;-63
2022/07/19 15:56:58;;;;;;;4.27;2.00;;;;;;;;;;8280946;28;20255;-63
2022/07/19 16:00:58;;;;;;;6.55;1.80;;;;;;;;;;8282502;28;20962;-63
2022/07/19 16:04:58;;;;;;;4.60;1.97;;;;;;;;;;8279082;28;20028;-63
2022/07/19 16:08:58;;;;;;;4.23;1.90;;;;;;;;;;8280424;28;20028;-63
2022/07/19 16:12:59;;;;;;;3.08;2.03;;;;;;;;;;8280313;28;20539;-63
2022/07/19 16:16:59;;;;;;;4.22;1.92;;;;;;;;;;8281963;28;20102;-63
2022/07/19 16:20:59;;;;;;;3.72;2.10;;;;;;;;;;8282547;28;20093;-63
2022/07/19 16:24:59;;;;;;;4.30;2.20;;;;;;;;;;8281795;28;20037;-62
2022/07/19 16:29:00;;;;;;;13.60;2.47;;;;;;;;;;8283652;28;20153;-63
2022/07/19 16:33:00;;;;;;;5.27;2.30;;;;;;;;;;8279647;28;20439;-63
2022/07/19 16:37:03;;;;;;;10.63;2.30;;;;;;;;;;8283257;28;20099;-63
2022/07/19 16:41:04;;;;;;;6.10;2.10;;;;;;;;;;8281336;28;20155;-63
2022/07/19 16:45:04;;;;;;;6.22;2.13;;;;;;;;;;8283276;28;20033;-63
2022/07/19 16:49:05;;;;;;;10.83;2.37;;;;;;;;;;8283678;28;20505;-62
2022/07/19 16:53:05;;;;;;;5.97;2.00;;;;;;;;;;8281315;28;20032;-62
2022/07/19 16:57:05;;;;;;;3.23;2.00;;;;;;;;;;8275856;28;20022;-62
2022/07/19 17:01:05;;;;;;;4.30;2.37;;;;;;;;;;8274946;28;20042;-62
2022/07/19 17:05:06;;;;;;;3.03;2.10;;;;;;;;;;8275228;28;20036;-62
2022/07/19 17:09:06;;;;;;;4.10;2.17;;;;;;;;;;8280413;28;20030;-62
2022/07/19 17:13:06;;;;;;;4.97;2.20;;;;;;;;;;8280993;28;20295;-62
2022/07/19 17:17:07;;;;;;;8.50;2.38;;;;;;;;;;8279370;28;20084;-63
2022/07/19 17:21:07;;;;;;;4.50;2.40;;;;;;;;;;8277544;28;20033;-62
2022/07/19 17:25:08;;;;;;;11.67;2.57;;;;;;;;;;8277856;28;20742;-62
2022/07/19 17:29:09;;;;;;;7.03;2.50;;;;;;;;;;8279803;28;20481;-62
2022/07/19 17:33:09;;;;;;;4.60;2.30;;;;;;;;;;8274467;28;20040;-62
2022/07/19 17:37:10;;;;;;;8.57;2.30;;;;;;;;;;8277984;28;20111;-62
2022/07/19 17:41:14;;;;;;;5.73;2.40;;;;;;;;;;8277249;28;20076;-62
2022/07/19 17:45:15;;;;;;;4.82;2.38;;;;;;;;;;8278869;28;20044;-62
2022/07/19 17:49:15;;;;;;;4.63;2.70;;;;;;;;;;8280618;28;20022;-62
2022/07/19 17:53:15;;;;;;;5.57;2.40;;;;;;;;;;8278949;28;20064;-62
2022/07/19 17:57:16;;;;;;;5.32;2.50;;;;;;;;;;8282811;28;20029;-62
2022/07/19 18:01:16;;;;;;;5.83;2.60;;;;;;;;;;8284735;28;20030;-63
2022/07/19 18:05:16;;;;;;;11.45;2.80;;;;;;;;;;8286437;28;20960;-63
2022/07/19 18:09:17;;;;;;;5.32;2.50;;;;;;;;;;8286455;28;20865;-63
2022/07/19 18:13:17;;;;;;;4.33;2.40;;;;;;;;;;8284264;28;20505;-62
2022/07/19 18:17:17;;;;;;;5.82;2.58;;;;;;;;;;8285427;28;20164;-62
2022/07/19 18:21:17;;;;;;;6.97;2.20;;;;;;;;;;8285719;28;20022;-62
2022/07/19 18:25:18;;;;;;;5.30;2.60;;;;;;;;;;8288070;28;20057;-63
2022/07/19 18:29:19;;;;;;;4.70;2.60;;;;;;;;;;8287734;28;20056;-62
2022/07/19 18:33:19;;;;;;;7.18;2.08;;;;;;;;;;8284936;28;20029;-63
2022/07/19 18:37:22;;;;;;;6.70;2.50;;;;;;;;;;8285101;28;20037;-63
2022/07/19 18:41:23;;;;;;;3.78;2.22;;;;;;;;;;8285344;28;20153;-62
2022/07/19 18:45:23;;;;;;;2.90;2.20;;;;;;;;;;8286795;28;20048;-62
2022/07/19 18:49:24;;;;;;;4.05;2.50;;;;;;;;;;8284296;28;20635;-62
2022/07/19 18:53:24;;;;;;;3.77;2.20;;;;;;;;;;8286382;28;20125;-62
2022/07/19 18:57:24;;;;;;;5.47;2.10;;;;;;;;;;8284170;28;20347;-62
2022/07/19 19:01:25;;;;;;;3.15;2.28;;;;;;;;;;8282556;28;20400;-62
2022/07/19 19:05:25;;;;;;;4.68;2.38;;;;;;;;;;8282463;28;20048;-62
2022/07/19 19:09:25;;;;;;;3.83;2.40;;;;;;;;;;8283996;28;20025;-62
2022/07/19 19:13:25;;;;;;;7.00;2.20;;;;;;;;;;8283208;28;20552;-62
2022/07/19 19:17:26;;;;;;;6.20;2.33;;;;;;;;;;8284069;28;20096;-63
2022/07/19 19:21:26;;;;;;;7.37;2.40;;;;;;;;;;8285666;28;20394;-62
2022/07/19 19:25:26;;;;;;;5.83;2.13;;;;;;;;;;8284370;28;20292;-62
2022/07/19 19:29:29;;;;;;;3.00;2.13;;;;;;;;;;8285356;28;20267;-62
2022/07/19 19:33:29;;;;;;;4.97;2.35;;;;;;;;;;8281983;28;20228;-62
2022/07/19 19:37:29;;;;;;;7.05;2.50;;;;;;;;;;8283635;28;20105;-62
2022/07/19 19:41:29;;;;;;;3.00;2.10;;;;;;;;;;8283043;28;20037;-63
2022/07/19 19:45:30;;;;;;;4.30;2.23;;;;;;;;;;8286690;28;20124;-62
2022/07/19 19:49:30;;;;;;;4.23;2.30;;;;;;;;;;8282396;28;20025;-62
2022/07/19 19:53:30;;;;;;;3.38;2.10;;;;;;;;;;8285101;28;20029;-63
2022/07/19 19:57:31;;;;;;;4.17;2.37;;;;;;;;;;8285014;28;20030;-62
2022/07/19 20:01:31;;;;;;;5.40;2.10;;;;;;;;;;8282582;28;20041;-62
2022/07/19 20:05:31;;;;;;;5.28;2.30;;;;;;;;;;8284120;28;20288;-62
2022/07/19 20:09:32;;;;;;;2.33;2.10;;;;;;;;;;8284432;28;20017;-62
2022/07/19 20:13:32;;;;;;;5.18;2.30;;;;;;;;;;8281155;28;20033;-62
2022/07/19 20:17:33;;;;;;;4.03;2.63;;;;;;;;;;8285742;28;20038;-63
2022/07/19 20:21:33;;;;;;;4.82;2.17;;;;;;;;;;8284669;28;20037;-63
2022/07/19 20:25:34;;;;;;;4.35;2.40;;;;;;;;;;8282652;28;20795;-62
2022/07/19 20:29:34;;;;;;;4.37;2.03;;;;;;;;;;8282968;28;20055;-62
2022/07/19 20:33:35;;;;;;;5.00;2.50;;;;;;;;;;8282331;28;20050;-62
2022/07/19 20:37:36;;;;;;;8.50;2.47;;;;;;;;;;8284924;28;20160;-62
2022/07/19 20:41:37;;;;;;;5.60;2.33;;;;;;;;;;8284881;28;20056;-62
2022/07/19 20:45:37;;;;;;;4.67;2.30;;;;;;;;;;8283600;28;20038;-62
2022/07/19 20:49:37;;;;;;;6.00;2.60;;;;;;;;;;8277630;28;20033;-62
2022/07/19 20:53:37;;;;;;;3.50;2.33;;;;;;;;;;8278752;28;20037;-61
2022/07/19 20:57:38;;;;;;;3.37;2.17;;;;;;;;;;8281549;28;20880;-62
2022/07/19 21:01:38;;;;;;;5.50;2.80;;;;;;;;;;8278051;28;20049;-62
2022/07/19 21:05:39;;;;;;;3.75;2.38;;;;;;;;;;8283858;28;20894;-62
2022/07/19 21:09:39;;;;;;;6.85;2.42;;;;;;;;;;8280456;28;20839;-62
2022/07/19 21:13:39;;;;;;;4.25;2.58;;;;;;;;;;8284472;28;20029;-62
2022/07/19 21:17:40;;;;;;;6.68;2.35;;;;;;;;;;8281436;28;20045;-62
2022/07/19 21:21:40;;;;;;;5.50;2.40;;;;;;;;;;8283207;28;20034;-62
2022/07/19 21:25:40;;;;;;;6.00;2.60;;;;;;;;;;8281993;28;20097;-62
2022/07/19 21:29:41;;;;;;;5.00;2.30;;;;;;;;;;8283290;28;20029;-62
2022/07/19 21:34:00;;;;;;;3.83;2.30;;;;;;;;;;8280786;28;20157;-61
2022/07/19 21:38:00;;;;;;;2.92;2.10;;;;;;;;;;8280091;28;21104;-62
2022/07/19 21:42:00;;;;;;;3.83;2.10;;;;;;;;;;8281557;28;20450;-62
2022/07/19 21:46:00;;;;;;;5.55;2.35;;;;;;;;;;8281948;28;20045;-61
2022/07/19 21:50:01;;;;;;;6.00;2.47;;;;;;;;;;8281502;28;20104;-62
2022/07/19 21:54:01;;;;;;;4.87;2.30;;;;;;;;;;8280029;28;20126;-61
2022/07/19 21:58:01;;;;;;;6.00;2.47;;;;;;;;;;8282602;28;20134;-63
2022/07/19 22:02:01;;;;;;;3.60;2.33;;;;;;;;;;8280326;28;20374;-63
2022/07/19 22:06:02;;;;;;;5.13;2.33;;;;;;;;;;8283796;28;20018;-62
2022/07/19 22:10:03;;;;;;;5.68;2.60;;;;;;;;;;8278405;28;20026;-62
2022/07/19 22:14:03;;;;;;;9.32;2.50;;;;;;;;;;8281234;28;20140;-62
2022/07/19 22:18:03;;;;;;;8.30;2.70;;;;;;;;;;8280667;28;20030;-61
2022/07/19 22:22:05;;;;;;;5.63;2.30;;;;;;;;;;8278148;28;20769;-61
2022/07/19 22:26:05;;;;;;;5.78;2.47;;;;;;;;;;8280658;28;20044;-62
2022/07/19 22:30:05;;;;;;;5.18;2.33;;;;;;;;;;8279931;28;20550;-62
2022/07/19 22:34:06;;;;;;;3.85;2.70;;;;;;;;;;8281341;28;20025;-61
2022/07/19 22:38:06;;;;;;;6.70;2.53;;;;;;;;;;8281011;28;20206;-62
2022/07/19 22:42:06;;;;;;;6.40;2.50;;;;;;;;;;8279011;28;20029;-62
2022/07/19 22:46:07;;;;;;;5.82;2.65;;;;;;;;;;8286519;28;20268;-62
2022/07/19 22:50:07;;;;;;;4.68;2.28;;;;;;;;;;8289173;28;20478;-62
2022/07/19 22:54:08;;;;;;;3.78;2.20;;;;;;;;;;8286822;28;20048;-61
2022/07/19 22:58:08;;;;;;;4.35;2.30;;;;;;;;;;8286418;28;20037;-62
2022/07/19 23:02:08;;;;;;;6.00;2.27;;;;;;;;;;8285223;28;20036;-62
2022/07/19 23:06:08;;;;;;;4.40;2.25;;;;;;;;;;8283862;28;20053;-62
2022/07/19 23:10:09;;;;;;;9.85;2.13;;;;;;;;;;8286345;28;20024;-61
2022/07/19 23:14:09;;;;;;;6.63;3.00;;;;;;;;;;8286031;28;20021;-61
2022/07/19 23:18:09;;;;;;;4.30;2.43;;;;;;;;;;8284134;28;20103;-62
2022/07/19 23:22:10;;;;;;;7.57;2.20;;;;;;;;;;8285561;28;20311;-62
2022/07/19 23:26:10;;;;;;;5.07;2.42;;;;;;;;;;8285476;28;20025;-62
2022/07/19 23:30:11;;;;;;;5.10;2.28;;;;;;;;;;8285370;28;20017;-61
2022/07/19 23:34:11;;;;;;;2.70;2.30;;;;;;;;;;8284431;28;20025;-61
2022/07/19 23:38:11;;;;;;;10.40;2.42;;;;;;;;;;8283726;28;20033;-62
2022/07/19 23:42:11;;;;;;;3.42;2.38;;;;;;;;;;8286001;28;20036;-62
2022/07/19 23:46:12;;;;;;;8.13;2.22;;;;;;;;;;8286493;28;20046;-62
2022/07/19 23:50:12;;;;;;;4.93;2.40;;;;;;;;;;8286430;28;20513;-62
2022/07/19 23:54:12;;;;;;;5.22;2.38;;;;;;;;;;8286212;28;20026;-62
2022/07/19 23:58:12;;;;;;;5.85;2.38;;;;;;;;;;8285178;28;20028;-62
